• Join FlightAware (Why Join?)
  • Login
  • US Flag 
04:45PM EDT


 

Airport Tracker/Info


-or-


 

Live Flight TrackerFlight Track Log ✈ SKW3459 ✈ 12-Apr-2013 ✈ KLGB - KPDX

Flight Track Log - Related Links

Times and Time Zones

All times are in EDT time to prevent confusion due to time zone crossing. See the SKW3459 flight status page for this flight to view local times or setup timezone preferences in your user account.

Time Position Orientation Groundspeed Altitude Reporting Facility
EDT Latitude Longitude Course Direction KTS MPH feet Rate Location/Type
08:14PM 33.8500 -118.2500 336° Northwest 209 241 3,700  Level Southern California TRACON
08:15PM 33.8500 -118.3167 270° West 220 253 6,200 2,040 Climbing Southern California TRACON
08:16PM 33.8447 -118.3308 246° West 220 253 6,300 1,500 Climbing Los Angeles Center
08:17PM 33.8572 -118.4153 280° West 256 295 8,200 1,260 Climbing Los Angeles Center
08:18PM 33.8781 -118.5292 282° West 293 337 9,000 360 Climbing Los Angeles Center
08:19PM 34.2299 -118.5799 320° Northwest  Level FlightAware Approximate
08:19PM 33.9142 -118.6089 299° West 276 318 9,000  Level Los Angeles Center
08:20PM 34.3243 -118.6130 336° Northwest  Level FlightAware Approximate
08:20PM 33.9786 -118.6731 320° Northwest 279 321 9,000  Level Los Angeles Center
08:21PM 34.0550 -118.6717 North 280 322 9,000  Level Los Angeles Center
08:22PM 34.1261 -118.6533 12° North 281 323 9,000 960 Level Los Angeles Center
08:23PM 34.2050 -118.6467 North 293 337 11,100 2,400 Climbing Los Angeles Center
08:24PM 34.2992 -118.6778 345° North 293 337 14,000 1,920 Climbing Los Angeles Center
08:25PM 34.3675 -118.7031 343° North 312 359 15,100 1,500 Climbing Los Angeles Center
08:26PM 34.4808 -118.7436 344° North 352 405 17,200 2,040 Climbing Los Angeles Center
08:27PM 34.5753 -118.7783 343° North 354 407 19,400 1,980 Climbing Los Angeles Center
08:28PM 34.6692 -118.8125 343° North 352 405 21,300 1,500 Climbing Los Angeles Center
08:29PM 34.7644 -118.8469 343° North 354 407 22,800 1,380 Climbing Los Angeles Center
08:30PM 34.8958 -118.8928 344° North 366 421 24,500 1,260 Climbing Los Angeles Center
08:31PM 34.9986 -118.9294 344° North 381 438 25,500 1,020 Climbing Los Angeles Center
08:32PM 35.1039 -118.9647 345° North 390 449 26,700 1,200 Climbing Los Angeles Center
08:33PM 35.2081 -119.0006 344° North 389 448 28,000 600 Climbing Los Angeles Center
08:34PM 35.3353 -119.0456 344° North 396 456 28,000  Level Los Angeles Center
08:36PM 35.4467 -119.0864 343° North 413 475 28,000 420 Level Los Angeles Center
08:37PM 35.5569 -119.1275 343° North 413 475 28,900 1,020 Climbing Los Angeles Center
08:38PM 35.6628 -119.1658 344° North 400 460 30,200 1,260 Climbing Los Angeles Center
08:39PM 35.7717 -119.2042 344° North 393 452 31,600 1,260 Climbing Oakland Center
08:40PM 35.8750 -119.2428 343° North 392 451 32,900 1,260 Climbing Oakland Center
08:41PM 35.9736 -119.2783 344° North 375 432 34,200 1,140 Climbing Oakland Center
08:42PM 36.0794 -119.3150 344° North 364 419 35,300 1,020 Climbing Oakland Center
08:43PM 36.1806 -119.3536 343° North 359 413 36,300 960 Climbing Oakland Center
08:44PM 36.2703 -119.3886 343° North 348 400 37,300 780 Climbing Oakland Center
08:45PM 36.3669 -119.4258 343° North 343 395 37,900 300 Climbing Oakland Center
08:46PM 36.4561 -119.4603 343° North 343 395 38,000  Climbing Oakland Center
08:47PM 36.5556 -119.4986 343° North 353 406 38,000  Level Oakland Center
08:48PM 36.6500 -119.5347 343° North 362 417 38,000  Level Oakland Center
08:49PM 36.7544 -119.5744 343° North 372 428 38,000  Level Oakland Center
08:50PM 36.8597 -119.6153 343° North 379 436 38,000  Level Oakland Center
08:51PM 36.9544 -119.6550 341° North 369 425 38,000  Level Oakland Center
08:52PM 37.0578 -119.6950 343° North 366 421 38,000  Level Oakland Center
08:53PM 37.1550 -119.7342 342° North 373 429 38,000  Level Oakland Center
08:54PM 37.2594 -119.7753 343° North 372 428 38,000  Level Oakland Center
08:55PM 37.3514 -119.8117 343° North 372 428 38,000  Level Oakland Center
08:56PM 37.4508 -119.8492 343° North 374 430 38,000  Level Oakland Center
08:57PM 37.5478 -119.8886 342° North 368 423 38,000  Level Oakland Center
08:58PM 37.6469 -119.9261 343° North 371 427 38,000  Level Oakland Center
08:59PM 37.7653 -119.9725 343° North 370 426 38,000  Level Oakland Center
09:00PM 37.8642 -120.0075 344° North 368 423 38,000  Level Oakland Center
09:01PM 37.9625 -120.0478 342° North 372 428 38,000  Level Oakland Center
09:02PM 38.0622 -120.0869 343° North 374 430 38,000  Level Oakland Center
09:03PM 38.1606 -120.1261 343° North 373 429 38,000  Level Oakland Center
09:04PM 38.2594 -120.1656 343° North 372 428 38,000  Level Oakland Center
09:05PM 38.3583 -120.2056 342° North 374 430 38,000  Level Oakland Center
09:06PM 38.4567 -120.2456 342° North 374 430 38,000  Level Oakland Center
09:07PM 38.5558 -120.2856 342° North 374 430 38,000  Level Oakland Center
09:08PM 38.6767 -120.3333 343° North 378 435 38,000  Level Oakland Center
09:09PM 38.7778 -120.3747 342° North 381 438 38,000  Level Oakland Center
09:10PM 38.8792 -120.4164 342° North 384 442 38,000  Level Oakland Center
09:11PM 38.9806 -120.4569 343° North 384 442 38,000  Level Oakland Center
09:12PM 39.0822 -120.4989 342° North 384 442 38,000  Level Oakland Center
09:13PM 39.1817 -120.5408 342° North 380 437 38,000  Level Oakland Center
09:14PM 39.2831 -120.5831 342° North 382 440 38,000  Level Oakland Center
09:15PM 39.3833 -120.6247 342° North 380 437 38,000  Level Oakland Center
09:16PM 39.5036 -120.6733 343° North 379 436 38,000  Level Oakland Center
09:17PM 39.6028 -120.7144 342° North 376 433 38,000  Level Oakland Center
09:18PM 39.7031 -120.7569 342° North 378 435 38,000  Level Oakland Center
09:19PM 39.8014 -120.7978 342° North 375 432 38,000  Level Oakland Center
09:21PM 39.9011 -120.8400 342° North 376 433 38,000  Level Oakland Center
09:22PM 40.0003 -120.8822 342° North 375 432 38,000  Level Oakland Center
09:23PM 40.1089 -120.9261 343° North 379 436 38,000  Level Oakland Center
09:24PM 40.2075 -120.9681 342° North 377 434 38,000  Level Oakland Center
09:25PM 40.3050 -121.0117 341° North 374 430 38,000  Level Oakland Center
09:26PM 40.4047 -121.0528 343° North 374 430 38,000  Level Oakland Center
09:27PM 40.5036 -121.0953 342° North 374 430 38,000  Level Oakland Center
09:28PM 40.6078 -121.1417 341° North 376 433 38,000  Level Oakland Center
09:28PM 40.6486 -121.1561 345° North 374 430 38,000  Level Seattle Center
09:29PM 40.7486 -121.1992 342° North 376 433 38,000  Level Seattle Center
09:30PM 40.8478 -121.2433 341° North 376 433 38,000  Level Seattle Center
09:31PM 40.9453 -121.2861 342° North 370 426 38,000  Level Seattle Center
09:32PM 41.0633 -121.3375 342° North 371 427 38,000  Level Seattle Center
09:33PM 41.1611 -121.3808 342° North 370 426 38,000  Level Seattle Center
09:34PM 41.2181 -121.4078 340° North 366 421 38,000  Level Oakland Center
09:35PM 41.3158 -121.4503 342° North 368 423 38,000  Level Oakland Center
09:36PM 41.4131 -121.4936 342° North 369 425 38,000  Level Oakland Center
09:37PM 41.5094 -121.5356 342° North 367 422 38,000  Level Oakland Center
09:37PM 41.5483 -121.5517 343° North 367 422 38,000  Level Seattle Center
09:38PM 41.6450 -121.5944 342° North 367 422 38,000  Level Seattle Center
09:39PM 41.7417 -121.6381 341° North 368 423 38,000  Level Seattle Center
09:40PM 41.8375 -121.6800 342° North 364 419 38,000  Level Seattle Center
09:41PM 41.9342 -121.7231 342° North 368 423 38,000  Level Seattle Center
09:42PM 42.0292 -121.7633 343° North 361 415 38,000  Level Seattle Center
09:43PM 42.1442 -121.8169 341° North 367 422 38,000  Level Seattle Center
09:44PM 42.2394 -121.8606 341° North 369 425 38,000  Level Seattle Center
09:45PM 42.3356 -121.9033 342° North 365 420 38,000  Level Seattle Center
09:46PM 42.4328 -121.9472 342° North 366 421 38,000  Level Seattle Center
09:47PM 42.5292 -121.9914 341° North 364 419 38,000  Level Seattle Center
09:48PM 42.6256 -122.0344 342° North 362 417 38,000  Level Seattle Center
09:49PM 42.7217 -122.0775 342° North 360 414 38,000  Level Seattle Center
09:50PM 42.8186 -122.1222 341° North 364 419 38,000  Level Seattle Center
09:51PM 42.9175 -122.1675 341° North 371 427 38,000  Level Seattle Center
09:52PM 43.0347 -122.2208 342° North 376 433 38,000  Level Seattle Center
09:53PM 43.1356 -122.2700 340° North 381 438 38,000  Level Seattle Center
09:54PM 43.2372 -122.3167 342° North 381 438 38,000  Level Seattle Center
09:55PM 43.3383 -122.3650 341° North 381 438 38,000  Level Seattle Center
09:57PM 43.4397 -122.4108 342° North 379 436 38,000  Level Seattle Center
09:58PM 43.5400 -122.4592 341° North 380 437 38,000  Level Seattle Center
09:59PM 43.6386 -122.5058 341° North 375 432 38,000  Level Seattle Center
10:00PM 43.7392 -122.5536 341° North 380 437 38,000  Level Seattle Center
10:01PM 43.8392 -122.6019 341° North 380 437 38,000 -180 Level Seattle Center
10:02PM 43.9394 -122.6500 341° North 381 438 37,700 -1,560 Descending Seattle Center
10:03PM 44.0375 -122.6969 341° North 374 430 34,900 -2,760 Descending Seattle Center
10:04PM 44.1322 -122.7419 341° North 362 417 32,200 -2,880 Descending Seattle Center
10:05PM 44.2625 -122.7408 360° North 396 456 29,100 -2,760 Descending Seattle Center
10:06PM 44.3589 -122.7314 North 405 466 26,600 -2,580 Descending Seattle Center
10:07PM 44.4706 -122.7208 North 405 466 23,900 -2,760 Descending Seattle Center
10:08PM 44.5844 -122.7097 North 410 472 21,000 -3,180 Descending Seattle Center
10:08PM 44.6519 -122.7067 North 412 474 19,300 -3,360 Descending Seattle Center
10:09PM 44.7186 -122.6967 North 407 468 17,600 -2,820 Descending Seattle Center
10:09PM 44.7769 -122.6931 North 388 447 16,200 -2,460 Descending Seattle Center
10:10PM 44.8239 -122.6867 North 390 449 15,100 -2,460 Descending Seattle Center
10:10PM 44.8783 -122.6797 North 361 415 13,700 -2,400 Descending Seattle Center
10:11PM 44.9225 -122.6772 North 366 421 12,700 -1,800 Descending Seattle Center
10:11PM 44.9828 -122.6711 North 343 395 11,700 -1,620 Descending Seattle Center
10:12PM 45.0164 -122.6664 North 348 400 11,100 -1,440 Descending Seattle Center
10:12PM 45.0714 -122.6597 North 314 361 10,300 -1,200 Descending Seattle Center
10:13PM 45.1017 -122.6575 North 320 368 9,900 -1,140 Descending Seattle Center
10:13PM 45.1456 -122.6511 North 287 330 9,300 -1,320 Descending Seattle Center
10:14PM 45.1761 -122.6189 37° Northeast 308 354 8,600 -1,560 Descending Seattle Center
10:14PM 45.2094 -122.5822 38° Northeast 315 362 7,900 -1,500 Descending Seattle Center
10:15PM 45.2444 -122.5458 36° Northeast 311 358 7,100 -900 Descending Seattle Center
10:15PM 45.2775 -122.5117 36° Northeast 299 344 7,000 -720 Descending Seattle Center
10:16PM 45.3094 -122.4789 36° Northeast 291 335 6,400 -1,440 Descending Seattle Center
10:16PM 45.3325 -122.4522 39° Northeast 266 306 5,700 -1,620 Descending Seattle Center
10:17PM 45.3694 -122.4156 35° Northeast 275 316 4,800 -1,500 Descending Seattle Center
10:17PM 45.3983 -122.3914 30° Northeast 252 290 4,100 -1,380 Descending Seattle Center
10:18PM 45.4294 -122.3650 31° Northeast 256 295 3,400 -1,020 Descending Seattle Center
10:18PM 45.4589 -122.3481 22° Northeast 207 238 3,100 -720 Descending Seattle Center
10:19PM 45.4806 -122.3572 343° North 201 231 2,700 -600 Descending Seattle Center
10:19PM 45.4994 -122.3775 323° Northwest 153 176 2,500 -240 Descending Seattle Center
10:20PM 45.5133 -122.4064 304° West 142 163 2,500 -240 Level Seattle Center
10:20PM 45.5147 -122.4206 278° West 113 130 2,300 -540 Descending Seattle Center
10:21PM 45.5281 -122.4478 305° West 121 139 2,000 -300 Descending Seattle Center
10:21PM 45.5319 -122.4628 290° West 122 140 2,000 -540 Level Seattle Center
10:22PM 45.5436 -122.4908 301° West 121 139 1,500 -840 Descending Seattle Center
10:22PM 45.5500 -122.5081 298° West 123 142 1,200 -720 Descending Seattle Center
10:23PM 45.5603 -122.5333 300° West 122 140 800 -720 Descending Seattle Center
10:23PM 45.5672 -122.5503 300° West 127 146 500 -420 Descending Seattle Center
10:24PM 45.5758 -122.5714 300° West 123 142 400 -180 Descending Seattle Center